This is the latest recevied weather packets stored in our database for station/object JF7BTK-10. If no packets are shown the sender has not sent any weather packets the latest 10 day(s).
| Time | Temp. | Humidity | Pressure | Rain* | Wind** | Luminosity | Snow |
|---|---|---|---|---|---|---|---|
| 1788614886 | 15.56° C | 85% | 1013.2 hPa | 0 mm | - | - | - |
| 1788613987 | 16.11° C | 84% | 1013.3 hPa | 0 mm | - | - | - |
| 1788613087 | 16.67° C | 83% | 1013.3 hPa | 0 mm | - | - | - |
| 1788612186 | 16.67° C | 82% | 1013.2 hPa | 0 mm | - | - | - |
| 1788611750 | 16.67° C | 80% | 1013.2 hPa | 0 mm | - | - | - |
| 1788611286 | 17.22° C | 78% | 1013.3 hPa | 0 mm | - | - | - |
| 1788610550 | 18.33° C | 71% | 1013.3 hPa | 0 mm | - | - | - |
| 1788610386 | 18.33° C | 71% | 1013.3 hPa | 0 mm | - | - | - |
| 1788610250 | 18.33° C | 70% | 1013.3 hPa | 0 mm | - | - | - |
| 1788609487 | 18.89° C | 69% | 1013 hPa | 0 mm | - | - | - |
| 1788608587 | 18.89° C | 70% | 1013 hPa | 0 mm | - | - | - |
| 1788607686 | 18.89° C | 70% | 1012.8 hPa | 0 mm | - | - | - |
| 1788606787 | 18.89° C | 72% | 1012.6 hPa | 0 mm | - | - | - |
| 1788605887 | 18.89° C | 75% | 1012.7 hPa | 0 mm | - | - | - |
| 1788604987 | 18.89° C | 79% | 1012.6 hPa | 0 mm | - | - | - |
| 1788604086 | 18.33° C | 82% | 1012.4 hPa | 0 mm | - | - | - |
| 1788603649 | 17.78° C | 83% | 1012.2 hPa | 0 mm | - | - | - |
| 1788603186 | 17.78° C | 82% | 1012 hPa | 0 mm | - | - | - |
| 1788602451 | 18.33° C | 80% | 1012 hPa | 0 mm | - | - | - |
| 1788602287 | 18.33° C | 80% | 1011.9 hPa | 0 mm | - | - | - |
| 1788601409 | 18.89° C | 77% | 1011.7 hPa | 0 mm | - | - | - |
| 1788600650 | 19.44° C | 77% | 1011.5 hPa | 0 mm | - | - | - |
| 1788600486 | 19.44° C | 76% | 1011.6 hPa | 0 mm | - | - | - |
| 1788599586 | 19.44° C | 74% | 1011.3 hPa | 0 mm | - | - | - |
| 1788599151 | 20° C | 73% | 1011.2 hPa | 0 mm | - | - | - |
* Rain latest hour (hover to see other rain measurements)
** Current wind speed in m/s (hover to see current wind gust speed)